sensor_id;sensor_type;location;lat;lon;timestamp;temperature;humidity
31113;DHT22;17763;48.730;9.136;2023-05-13T00:01:26;10.70;99.90
31113;DHT22;17763;48.730;9.136;2023-05-13T00:03:54;10.70;99.90
31113;DHT22;17763;48.730;9.136;2023-05-13T00:06:19;10.70;99.90
31113;DHT22;17763;48.730;9.136;2023-05-13T00:08:48;10.70;99.90
31113;DHT22;17763;48.730;9.136;2023-05-13T00:11:13;10.70;99.90
31113;DHT22;17763;48.730;9.136;2023-05-13T00:13:41;10.70;99.90
31113;DHT22;17763;48.730;9.136;2023-05-13T00:16:07;10.70;99.90
31113;DHT22;17763;48.730;9.136;2023-05-13T00:18:35;10.60;99.90
31113;DHT22;17763;48.730;9.136;2023-05-13T00:21:01;10.60;99.90
31113;DHT22;17763;48.730;9.136;2023-05-13T00:23:26;10.60;99.90
31113;DHT22;17763;48.730;9.136;2023-05-13T00:25:52;10.60;99.90
31113;DHT22;17763;48.730;9.136;2023-05-13T00:28:20;10.60;99.90
31113;DHT22;17763;48.730;9.136;2023-05-13T00:30:46;10.60;99.90
31113;DHT22;17763;48.730;9.136;2023-05-13T00:33:12;10.60;99.90
31113;DHT22;17763;48.730;9.136;2023-05-13T00:35:37;10.60;99.90
31113;DHT22;17763;48.730;9.136;2023-05-13T00:38:03;10.60;99.90
31113;DHT22;17763;48.730;9.136;2023-05-13T00:40:29;10.60;99.90
31113;DHT22;17763;48.730;9.136;2023-05-13T00:42:55;10.60;99.90
31113;DHT22;17763;48.730;9.136;2023-05-13T00:45:21;10.60;99.90
31113;DHT22;17763;48.730;9.136;2023-05-13T00:47:46;10.50;99.90
31113;DHT22;17763;48.730;9.136;2023-05-13T00:50:13;10.50;99.90
31113;DHT22;17763;48.730;9.136;2023-05-13T00:52:40;10.50;99.90
31113;DHT22;17763;48.730;9.136;2023-05-13T00:55:06;10.50;99.90
31113;DHT22;17763;48.730;9.136;2023-05-13T00:57:32;10.50;99.90
31113;DHT22;17763;48.730;9.136;2023-05-13T00:59:59;10.50;99.90
31113;DHT22;17763;48.730;9.136;2023-05-13T01:05:18;10.50;99.90
31113;DHT22;17763;48.730;9.136;2023-05-13T01:10:51;10.50;99.90
31113;DHT22;17763;48.730;9.136;2023-05-13T01:13:23;10.50;99.90
31113;DHT22;17763;48.730;9.136;2023-05-13T01:16:01;10.40;99.90
31113;DHT22;17763;48.730;9.136;2023-05-13T01:18:32;10.40;99.90
31113;DHT22;17763;48.730;9.136;2023-05-13T01:21:00;10.40;99.90
31113;DHT22;17763;48.730;9.136;2023-05-13T01:23:26;10.40;99.90
31113;DHT22;17763;48.730;9.136;2023-05-13T01:25:51;10.40;99.90
31113;DHT22;17763;48.730;9.136;2023-05-13T01:28:18;10.40;99.90
31113;DHT22;17763;48.730;9.136;2023-05-13T01:30:45;10.40;99.90
31113;DHT22;17763;48.730;9.136;2023-05-13T01:33:11;10.40;99.90
31113;DHT22;17763;48.730;9.136;2023-05-13T01:35:37;10.30;99.90
31113;DHT22;17763;48.730;9.136;2023-05-13T01:38:06;10.30;99.90
31113;DHT22;17763;48.730;9.136;2023-05-13T01:40:35;10.30;99.90
31113;DHT22;17763;48.730;9.136;2023-05-13T01:43:04;10.30;99.90
31113;DHT22;17763;48.730;9.136;2023-05-13T01:45:32;10.30;99.90
31113;DHT22;17763;48.730;9.136;2023-05-13T01:47:58;10.20;99.90
31113;DHT22;17763;48.730;9.136;2023-05-13T01:50:24;10.10;99.90
31113;DHT22;17763;48.730;9.136;2023-05-13T01:52:50;10.10;99.90
31113;DHT22;17763;48.730;9.136;2023-05-13T01:55:16;10.00;99.90
31113;DHT22;17763;48.730;9.136;2023-05-13T01:57:44;10.00;99.90
31113;DHT22;17763;48.730;9.136;2023-05-13T02:00:10;9.90;99.90
31113;DHT22;17763;48.730;9.136;2023-05-13T02:02:36;9.90;99.90
31113;DHT22;17763;48.730;9.136;2023-05-13T02:05:02;9.80;99.90
31113;DHT22;17763;48.730;9.136;2023-05-13T02:07:28;9.80;99.90
31113;DHT22;17763;48.730;9.136;2023-05-13T02:09:53;9.80;99.90
31113;DHT22;17763;48.730;9.136;2023-05-13T02:12:24;9.70;99.90
31113;DHT22;17763;48.730;9.136;2023-05-13T02:14:54;9.70;99.90
31113;DHT22;17763;48.730;9.136;2023-05-13T02:17:20;9.60;99.90
31113;DHT22;17763;48.730;9.136;2023-05-13T02:19:46;9.60;99.90
31113;DHT22;17763;48.730;9.136;2023-05-13T02:22:12;9.60;99.90
31113;DHT22;17763;48.730;9.136;2023-05-13T02:24:40;9.60;99.90
31113;DHT22;17763;48.730;9.136;2023-05-13T02:27:06;9.50;99.90
31113;DHT22;17763;48.730;9.136;2023-05-13T02:29:33;9.50;99.90
31113;DHT22;17763;48.730;9.136;2023-05-13T02:31:59;9.50;99.90
31113;DHT22;17763;48.730;9.136;2023-05-13T02:34:24;9.60;99.90
31113;DHT22;17763;48.730;9.136;2023-05-13T02:36:50;9.50;99.90
31113;DHT22;17763;48.730;9.136;2023-05-13T02:39:17;9.50;99.90
31113;DHT22;17763;48.730;9.136;2023-05-13T02:41:45;9.50;99.90
31113;DHT22;17763;48.730;9.136;2023-05-13T02:44:10;9.50;99.90
31113;DHT22;17763;48.730;9.136;2023-05-13T02:46:36;9.50;99.90
31113;DHT22;17763;48.730;9.136;2023-05-13T02:49:02;9.50;99.90
31113;DHT22;17763;48.730;9.136;2023-05-13T02:51:28;9.50;99.90
31113;DHT22;17763;48.730;9.136;2023-05-13T02:53:53;9.40;99.90
31113;DHT22;17763;48.730;9.136;2023-05-13T02:56:19;9.40;99.90
31113;DHT22;17763;48.730;9.136;2023-05-13T02:58:45;9.40;99.90
31113;DHT22;17763;48.730;9.136;2023-05-13T03:01:15;9.40;99.90
31113;DHT22;17763;48.730;9.136;2023-05-13T03:03:41;9.40;99.90
31113;DHT22;17763;48.730;9.136;2023-05-13T03:06:07;9.40;99.90
31113;DHT22;17763;48.730;9.136;2023-05-13T03:08:33;9.40;99.90
31113;DHT22;17763;48.730;9.136;2023-05-13T03:10:59;9.40;99.90
31113;DHT22;17763;48.730;9.136;2023-05-13T03:13:25;9.40;99.90
31113;DHT22;17763;48.730;9.136;2023-05-13T03:15:56;9.30;99.90
31113;DHT22;17763;48.730;9.136;2023-05-13T03:18:21;9.20;99.90
31113;DHT22;17763;48.730;9.136;2023-05-13T03:20:47;9.20;99.90
31113;DHT22;17763;48.730;9.136;2023-05-13T03:23:13;9.20;99.90
31113;DHT22;17763;48.730;9.136;2023-05-13T03:25:41;9.20;99.90
31113;DHT22;17763;48.730;9.136;2023-05-13T03:28:07;9.20;99.90
31113;DHT22;17763;48.730;9.136;2023-05-13T03:30:34;9.10;99.90
31113;DHT22;17763;48.730;9.136;2023-05-13T03:32:59;9.20;99.90
31113;DHT22;17763;48.730;9.136;2023-05-13T03:35:28;9.20;99.90
31113;DHT22;17763;48.730;9.136;2023-05-13T03:37:54;9.10;99.90
31113;DHT22;17763;48.730;9.136;2023-05-13T03:40:25;9.10;99.90
31113;DHT22;17763;48.730;9.136;2023-05-13T03:42:51;9.10;99.90
31113;DHT22;17763;48.730;9.136;2023-05-13T03:45:17;9.10;99.90
31113;DHT22;17763;48.730;9.136;2023-05-13T03:47:44;9.10;99.90
31113;DHT22;17763;48.730;9.136;2023-05-13T03:50:13;9.10;99.90
31113;DHT22;17763;48.730;9.136;2023-05-13T03:52:39;9.10;99.90
31113;DHT22;17763;48.730;9.136;2023-05-13T03:55:05;9.10;99.90
31113;DHT22;17763;48.730;9.136;2023-05-13T03:57:31;9.10;99.90
31113;DHT22;17763;48.730;9.136;2023-05-13T03:59:57;9.10;99.90
31113;DHT22;17763;48.730;9.136;2023-05-13T04:02:22;9.10;99.90
31113;DHT22;17763;48.730;9.136;2023-05-13T04:04:48;9.10;99.90
31113;DHT22;17763;48.730;9.136;2023-05-13T04:07:17;9.00;99.90
31113;DHT22;17763;48.730;9.136;2023-05-13T04:09:42;9.10;99.90
31113;DHT22;17763;48.730;9.136;2023-05-13T04:12:08;9.00;99.90
31113;DHT22;17763;48.730;9.136;2023-05-13T04:14:34;9.00;99.90
31113;DHT22;17763;48.730;9.136;2023-05-13T04:17:00;9.00;99.90
31113;DHT22;17763;48.730;9.136;2023-05-13T04:19:30;9.00;99.90
31113;DHT22;17763;48.730;9.136;2023-05-13T04:21:56;9.00;99.90
31113;DHT22;17763;48.730;9.136;2023-05-13T04:24:24;9.00;99.90
31113;DHT22;17763;48.730;9.136;2023-05-13T04:26:50;9.10;99.90
31113;DHT22;17763;48.730;9.136;2023-05-13T04:29:16;9.10;99.90
31113;DHT22;17763;48.730;9.136;2023-05-13T04:31:43;9.10;99.90
31113;DHT22;17763;48.730;9.136;2023-05-13T04:34:09;9.10;99.90
31113;DHT22;17763;48.730;9.136;2023-05-13T04:36:34;9.10;99.90
31113;DHT22;17763;48.730;9.136;2023-05-13T04:39:00;9.10;99.90
31113;DHT22;17763;48.730;9.136;2023-05-13T04:41:28;9.10;99.90
31113;DHT22;17763;48.730;9.136;2023-05-13T04:43:54;9.10;99.90
31113;DHT22;17763;48.730;9.136;2023-05-13T04:46:20;9.10;99.90
31113;DHT22;17763;48.730;9.136;2023-05-13T04:48:46;9.20;99.90
31113;DHT22;17763;48.730;9.136;2023-05-13T04:51:14;9.20;99.90
31113;DHT22;17763;48.730;9.136;2023-05-13T04:53:43;9.20;99.90
31113;DHT22;17763;48.730;9.136;2023-05-13T04:56:08;9.10;99.90
31113;DHT22;17763;48.730;9.136;2023-05-13T04:58:35;9.10;99.90
31113;DHT22;17763;48.730;9.136;2023-05-13T05:01:00;9.10;99.90
31113;DHT22;17763;48.730;9.136;2023-05-13T05:03:26;9.00;99.90
31113;DHT22;17763;48.730;9.136;2023-05-13T05:05:54;9.10;99.90
31113;DHT22;17763;48.730;9.136;2023-05-13T05:08:22;9.10;99.90
31113;DHT22;17763;48.730;9.136;2023-05-13T05:10:48;9.10;99.90
31113;DHT22;17763;48.730;9.136;2023-05-13T05:13:16;9.20;99.90
31113;DHT22;17763;48.730;9.136;2023-05-13T05:15:44;9.10;99.90
31113;DHT22;17763;48.730;9.136;2023-05-13T05:18:10;9.20;99.90
31113;DHT22;17763;48.730;9.136;2023-05-13T05:20:37;9.30;99.90
31113;DHT22;17763;48.730;9.136;2023-05-13T05:23:05;9.30;99.90
31113;DHT22;17763;48.730;9.136;2023-05-13T05:25:31;9.30;99.90
31113;DHT22;17763;48.730;9.136;2023-05-13T05:27:57;9.30;99.90
31113;DHT22;17763;48.730;9.136;2023-05-13T05:30:25;9.20;99.90
31113;DHT22;17763;48.730;9.136;2023-05-13T05:32:51;9.20;99.90
31113;DHT22;17763;48.730;9.136;2023-05-13T05:35:17;9.20;99.90
31113;DHT22;17763;48.730;9.136;2023-05-13T05:37:44;9.20;99.90
31113;DHT22;17763;48.730;9.136;2023-05-13T05:40:10;9.30;99.90
31113;DHT22;17763;48.730;9.136;2023-05-13T05:42:38;9.30;99.90
31113;DHT22;17763;48.730;9.136;2023-05-13T05:45:05;9.40;99.90
31113;DHT22;17763;48.730;9.136;2023-05-13T05:47:30;9.40;99.90
31113;DHT22;17763;48.730;9.136;2023-05-13T05:49:56;9.40;99.90
31113;DHT22;17763;48.730;9.136;2023-05-13T05:52:22;9.40;99.90
31113;DHT22;17763;48.730;9.136;2023-05-13T05:54:48;9.50;99.90
31113;DHT22;17763;48.730;9.136;2023-05-13T05:57:16;9.50;99.90
31113;DHT22;17763;48.730;9.136;2023-05-13T05:59:42;9.50;99.90
31113;DHT22;17763;48.730;9.136;2023-05-13T06:02:10;9.60;99.90
31113;DHT22;17763;48.730;9.136;2023-05-13T06:04:36;9.50;99.90
31113;DHT22;17763;48.730;9.136;2023-05-13T06:07:01;9.40;99.90
31113;DHT22;17763;48.730;9.136;2023-05-13T06:09:27;9.50;99.90
31113;DHT22;17763;48.730;9.136;2023-05-13T06:11:55;9.50;99.90
31113;DHT22;17763;48.730;9.136;2023-05-13T06:14:23;9.50;99.90
31113;DHT22;17763;48.730;9.136;2023-05-13T06:16:49;9.50;99.90
31113;DHT22;17763;48.730;9.136;2023-05-13T06:19:15;9.60;99.90
31113;DHT22;17763;48.730;9.136;2023-05-13T06:21:43;9.60;99.90
31113;DHT22;17763;48.730;9.136;2023-05-13T06:24:09;9.50;99.90
31113;DHT22;17763;48.730;9.136;2023-05-13T06:26:35;9.50;99.90
31113;DHT22;17763;48.730;9.136;2023-05-13T06:29:03;9.50;99.90
31113;DHT22;17763;48.730;9.136;2023-05-13T06:31:31;9.50;99.90
31113;DHT22;17763;48.730;9.136;2023-05-13T06:33:59;9.50;99.90
31113;DHT22;17763;48.730;9.136;2023-05-13T06:36:25;9.60;99.90
31113;DHT22;17763;48.730;9.136;2023-05-13T06:38:52;9.60;99.90
31113;DHT22;17763;48.730;9.136;2023-05-13T06:41:18;9.60;99.90
31113;DHT22;17763;48.730;9.136;2023-05-13T06:43:43;9.60;99.90
31113;DHT22;17763;48.730;9.136;2023-05-13T06:46:11;9.70;99.90
31113;DHT22;17763;48.730;9.136;2023-05-13T06:48:37;9.70;99.90
31113;DHT22;17763;48.730;9.136;2023-05-13T06:51:05;9.70;99.90
31113;DHT22;17763;48.730;9.136;2023-05-13T06:53:34;9.80;99.90
31113;DHT22;17763;48.730;9.136;2023-05-13T06:55:59;9.90;99.90
31113;DHT22;17763;48.730;9.136;2023-05-13T06:58:27;9.90;99.90
31113;DHT22;17763;48.730;9.136;2023-05-13T07:00:53;10.00;99.90
31113;DHT22;17763;48.730;9.136;2023-05-13T07:03:19;10.00;99.90
31113;DHT22;17763;48.730;9.136;2023-05-13T07:05:47;10.20;99.90
31113;DHT22;17763;48.730;9.136;2023-05-13T07:08:13;10.30;99.90
31113;DHT22;17763;48.730;9.136;2023-05-13T07:10:43;10.40;99.90
31113;DHT22;17763;48.730;9.136;2023-05-13T07:13:10;10.50;99.90
31113;DHT22;17763;48.730;9.136;2023-05-13T07:15:38;10.40;99.90
31113;DHT22;17763;48.730;9.136;2023-05-13T07:18:06;10.20;99.90
31113;DHT22;17763;48.730;9.136;2023-05-13T07:20:32;10.20;99.90
31113;DHT22;17763;48.730;9.136;2023-05-13T07:22:58;10.20;99.90
31113;DHT22;17763;48.730;9.136;2023-05-13T07:25:23;10.30;99.90
31113;DHT22;17763;48.730;9.136;2023-05-13T07:27:56;10.20;99.90
31113;DHT22;17763;48.730;9.136;2023-05-13T07:30:27;10.20;99.90
31113;DHT22;17763;48.730;9.136;2023-05-13T07:32:53;10.30;99.90
31113;DHT22;17763;48.730;9.136;2023-05-13T07:35:21;10.40;99.90
31113;DHT22;17763;48.730;9.136;2023-05-13T07:37:49;10.60;99.90
31113;DHT22;17763;48.730;9.136;2023-05-13T07:40:15;10.80;99.90
31113;DHT22;17763;48.730;9.136;2023-05-13T07:42:44;10.70;99.90
31113;DHT22;17763;48.730;9.136;2023-05-13T07:45:10;10.60;99.90
31113;DHT22;17763;48.730;9.136;2023-05-13T07:47:36;10.60;99.90
31113;DHT22;17763;48.730;9.136;2023-05-13T07:50:04;10.70;99.90
31113;DHT22;17763;48.730;9.136;2023-05-13T07:52:33;11.00;99.90
31113;DHT22;17763;48.730;9.136;2023-05-13T07:55:02;11.00;99.90
31113;DHT22;17763;48.730;9.136;2023-05-13T07:57:30;11.00;99.90
31113;DHT22;17763;48.730;9.136;2023-05-13T07:59:56;11.00;99.90
31113;DHT22;17763;48.730;9.136;2023-05-13T08:02:22;11.00;99.90
31113;DHT22;17763;48.730;9.136;2023-05-13T08:04:53;11.00;99.90
31113;DHT22;17763;48.730;9.136;2023-05-13T08:07:19;10.90;99.90
31113;DHT22;17763;48.730;9.136;2023-05-13T08:09:44;10.70;99.90
31113;DHT22;17763;48.730;9.136;2023-05-13T08:12:10;10.70;99.90
31113;DHT22;17763;48.730;9.136;2023-05-13T08:14:38;10.70;99.90
31113;DHT22;17763;48.730;9.136;2023-05-13T08:17:04;10.80;99.90
31113;DHT22;17763;48.730;9.136;2023-05-13T08:19:34;10.90;99.90
31113;DHT22;17763;48.730;9.136;2023-05-13T08:22:00;10.80;99.90
31113;DHT22;17763;48.730;9.136;2023-05-13T08:24:26;10.70;99.90
31113;DHT22;17763;48.730;9.136;2023-05-13T08:26:54;10.90;99.90
31113;DHT22;17763;48.730;9.136;2023-05-13T08:29:20;11.10;99.90
31113;DHT22;17763;48.730;9.136;2023-05-13T08:31:46;10.90;99.90
31113;DHT22;17763;48.730;9.136;2023-05-13T08:34:14;10.90;99.90
31113;DHT22;17763;48.730;9.136;2023-05-13T08:36:39;11.00;99.90
31113;DHT22;17763;48.730;9.136;2023-05-13T08:39:05;11.00;99.90
31113;DHT22;17763;48.730;9.136;2023-05-13T08:41:36;10.90;99.90
31113;DHT22;17763;48.730;9.136;2023-05-13T08:44:03;10.80;99.90
31113;DHT22;17763;48.730;9.136;2023-05-13T08:46:36;10.80;99.90
31113;DHT22;17763;48.730;9.136;2023-05-13T08:49:03;10.90;99.90
31113;DHT22;17763;48.730;9.136;2023-05-13T08:51:29;10.80;99.90
31113;DHT22;17763;48.730;9.136;2023-05-13T08:53:56;10.90;99.90
31113;DHT22;17763;48.730;9.136;2023-05-13T08:56:22;10.80;99.90
31113;DHT22;17763;48.730;9.136;2023-05-13T08:58:51;10.70;99.90
31113;DHT22;17763;48.730;9.136;2023-05-13T09:01:17;10.70;99.90
31113;DHT22;17763;48.730;9.136;2023-05-13T09:03:57;10.60;99.90
31113;DHT22;17763;48.730;9.136;2023-05-13T09:06:26;10.70;99.90
31113;DHT22;17763;48.730;9.136;2023-05-13T09:08:59;10.70;99.90
31113;DHT22;17763;48.730;9.136;2023-05-13T09:11:27;10.70;99.90
31113;DHT22;17763;48.730;9.136;2023-05-13T09:14:01;10.60;99.90
31113;DHT22;17763;48.730;9.136;2023-05-13T09:16:28;10.60;99.90
31113;DHT22;17763;48.730;9.136;2023-05-13T09:19:04;10.60;99.90
31113;DHT22;17763;48.730;9.136;2023-05-13T09:21:33;10.60;99.90
31113;DHT22;17763;48.730;9.136;2023-05-13T09:24:10;10.80;99.90
31113;DHT22;17763;48.730;9.136;2023-05-13T09:26:38;10.80;99.90
31113;DHT22;17763;48.730;9.136;2023-05-13T09:29:17;11.00;99.90
31113;DHT22;17763;48.730;9.136;2023-05-13T09:31:45;10.90;99.90
31113;DHT22;17763;48.730;9.136;2023-05-13T09:34:14;10.80;99.90
31113;DHT22;17763;48.730;9.136;2023-05-13T09:36:55;10.80;99.90
31113;DHT22;17763;48.730;9.136;2023-05-13T09:39:21;10.90;99.90
31113;DHT22;17763;48.730;9.136;2023-05-13T09:41:47;11.00;99.90
31113;DHT22;17763;48.730;9.136;2023-05-13T09:44:12;11.00;99.90
31113;DHT22;17763;48.730;9.136;2023-05-13T09:46:42;11.00;99.90
31113;DHT22;17763;48.730;9.136;2023-05-13T09:49:11;11.10;99.90
31113;DHT22;17763;48.730;9.136;2023-05-13T09:51:38;11.20;99.90
31113;DHT22;17763;48.730;9.136;2023-05-13T09:54:05;11.30;99.90
31113;DHT22;17763;48.730;9.136;2023-05-13T09:56:35;11.50;99.90
31113;DHT22;17763;48.730;9.136;2023-05-13T09:59:03;11.60;99.90
31113;DHT22;17763;48.730;9.136;2023-05-13T10:01:29;11.50;99.90
31113;DHT22;17763;48.730;9.136;2023-05-13T10:03:56;11.50;99.90
31113;DHT22;17763;48.730;9.136;2023-05-13T10:06:26;11.50;99.90
31113;DHT22;17763;48.730;9.136;2023-05-13T10:08:57;11.50;99.90
31113;DHT22;17763;48.730;9.136;2023-05-13T10:11:23;11.50;99.90
31113;DHT22;17763;48.730;9.136;2023-05-13T10:13:54;11.50;99.90
31113;DHT22;17763;48.730;9.136;2023-05-13T10:16:24;11.70;99.90
31113;DHT22;17763;48.730;9.136;2023-05-13T10:18:53;12.00;99.90
31113;DHT22;17763;48.730;9.136;2023-05-13T10:21:20;12.30;99.90
31113;DHT22;17763;48.730;9.136;2023-05-13T10:23:48;12.40;99.90
31113;DHT22;17763;48.730;9.136;2023-05-13T10:26:16;12.60;99.90
31113;DHT22;17763;48.730;9.136;2023-05-13T10:28:42;12.80;99.90
31113;DHT22;17763;48.730;9.136;2023-05-13T10:31:08;12.90;99.90
31113;DHT22;17763;48.730;9.136;2023-05-13T10:33:39;13.00;99.90
31113;DHT22;17763;48.730;9.136;2023-05-13T10:38:38;13.20;99.90
31113;DHT22;17763;48.730;9.136;2023-05-13T10:41:29;13.10;99.90
31113;DHT22;17763;48.730;9.136;2023-05-13T10:43:59;13.10;99.90
31113;DHT22;17763;48.730;9.136;2023-05-13T10:46:25;13.20;99.90
31113;DHT22;17763;48.730;9.136;2023-05-13T10:48:56;13.40;99.90
31113;DHT22;17763;48.730;9.136;2023-05-13T10:51:23;13.50;99.90
31113;DHT22;17763;48.730;9.136;2023-05-13T10:53:55;13.70;99.90
31113;DHT22;17763;48.730;9.136;2023-05-13T10:56:24;13.80;99.90
31113;DHT22;17763;48.730;9.136;2023-05-13T10:59:04;13.80;99.90
31113;DHT22;17763;48.730;9.136;2023-05-13T11:01:36;13.70;99.90
31113;DHT22;17763;48.730;9.136;2023-05-13T11:04:13;13.20;99.90
31113;DHT22;17763;48.730;9.136;2023-05-13T11:06:41;13.10;99.90
31113;DHT22;17763;48.730;9.136;2023-05-13T11:09:11;13.20;99.90
31113;DHT22;17763;48.730;9.136;2023-05-13T11:11:40;13.30;99.90
31113;DHT22;17763;48.730;9.136;2023-05-13T11:14:13;12.90;99.90
31113;DHT22;17763;48.730;9.136;2023-05-13T11:16:54;13.00;99.90
31113;DHT22;17763;48.730;9.136;2023-05-13T11:19:34;12.70;99.90
31113;DHT22;17763;48.730;9.136;2023-05-13T11:24:33;12.50;99.90
31113;DHT22;17763;48.730;9.136;2023-05-13T11:27:20;12.50;99.90
31113;DHT22;17763;48.730;9.136;2023-05-13T11:29:54;12.60;99.90
31113;DHT22;17763;48.730;9.136;2023-05-13T11:35:11;12.60;99.90
31113;DHT22;17763;48.730;9.136;2023-05-13T11:37:41;12.50;99.90
31113;DHT22;17763;48.730;9.136;2023-05-13T11:40:09;12.40;99.90
31113;DHT22;17763;48.730;9.136;2023-05-13T11:42:37;12.10;99.90
31113;DHT22;17763;48.730;9.136;2023-05-13T11:45:05;12.10;99.90
31113;DHT22;17763;48.730;9.136;2023-05-13T11:47:31;12.10;99.90
31113;DHT22;17763;48.730;9.136;2023-05-13T11:49:57;12.10;99.90
31113;DHT22;17763;48.730;9.136;2023-05-13T11:52:23;12.20;99.90
31113;DHT22;17763;48.730;9.136;2023-05-13T11:54:50;12.20;99.90
31113;DHT22;17763;48.730;9.136;2023-05-13T11:57:28;12.30;99.90
31113;DHT22;17763;48.730;9.136;2023-05-13T12:02:28;12.30;99.90
31113;DHT22;17763;48.730;9.136;2023-05-13T12:04:54;12.20;99.90
31113;DHT22;17763;48.730;9.136;2023-05-13T12:07:24;12.20;99.90
31113;DHT22;17763;48.730;9.136;2023-05-13T12:09:51;12.30;99.90
31113;DHT22;17763;48.730;9.136;2023-05-13T12:12:18;12.40;99.90
31113;DHT22;17763;48.730;9.136;2023-05-13T12:14:45;12.50;99.90
31113;DHT22;17763;48.730;9.136;2023-05-13T12:17:15;12.60;99.90
31113;DHT22;17763;48.730;9.136;2023-05-13T12:20:19;12.60;99.90
31113;DHT22;17763;48.730;9.136;2023-05-13T12:28:13;12.50;99.90
31113;DHT22;17763;48.730;9.136;2023-05-13T12:31:04;12.60;99.90
31113;DHT22;17763;48.730;9.136;2023-05-13T12:33:41;12.70;99.90
31113;DHT22;17763;48.730;9.136;2023-05-13T12:36:25;12.80;99.90
31113;DHT22;17763;48.730;9.136;2023-05-13T12:39:19;13.00;99.90
31113;DHT22;17763;48.730;9.136;2023-05-13T12:41:50;13.00;99.90
31113;DHT22;17763;48.730;9.136;2023-05-13T12:44:17;12.90;99.90
31113;DHT22;17763;48.730;9.136;2023-05-13T12:46:50;13.00;99.90
31113;DHT22;17763;48.730;9.136;2023-05-13T12:49:16;13.20;99.90
31113;DHT22;17763;48.730;9.136;2023-05-13T12:51:44;13.30;99.90
31113;DHT22;17763;48.730;9.136;2023-05-13T12:54:10;13.60;99.90
31113;DHT22;17763;48.730;9.136;2023-05-13T12:56:37;13.50;99.90
31113;DHT22;17763;48.730;9.136;2023-05-13T12:59:04;13.30;99.90
31113;DHT22;17763;48.730;9.136;2023-05-13T13:01:30;13.20;99.90
31113;DHT22;17763;48.730;9.136;2023-05-13T13:03:56;13.20;99.90
31113;DHT22;17763;48.730;9.136;2023-05-13T13:06:22;13.30;99.90
31113;DHT22;17763;48.730;9.136;2023-05-13T13:08:48;13.40;99.90
31113;DHT22;17763;48.730;9.136;2023-05-13T13:11:13;13.20;99.90
31113;DHT22;17763;48.730;9.136;2023-05-13T13:13:43;13.30;99.90
31113;DHT22;17763;48.730;9.136;2023-05-13T13:16:08;13.40;99.90
31113;DHT22;17763;48.730;9.136;2023-05-13T13:18:34;13.40;99.90
31113;DHT22;17763;48.730;9.136;2023-05-13T13:21:00;13.50;99.90
31113;DHT22;17763;48.730;9.136;2023-05-13T13:23:26;13.60;99.90
31113;DHT22;17763;48.730;9.136;2023-05-13T13:25:51;13.60;99.90
31113;DHT22;17763;48.730;9.136;2023-05-13T13:28:17;13.70;99.90
31113;DHT22;17763;48.730;9.136;2023-05-13T13:30:43;14.00;99.90
31113;DHT22;17763;48.730;9.136;2023-05-13T13:33:14;14.30;99.90
31113;DHT22;17763;48.730;9.136;2023-05-13T13:35:42;14.50;99.90
31113;DHT22;17763;48.730;9.136;2023-05-13T13:38:08;14.50;99.90
31113;DHT22;17763;48.730;9.136;2023-05-13T13:40:34;14.00;99.90
31113;DHT22;17763;48.730;9.136;2023-05-13T13:43:02;13.70;99.90
31113;DHT22;17763;48.730;9.136;2023-05-13T13:45:28;13.70;99.90
31113;DHT22;17763;48.730;9.136;2023-05-13T13:47:54;13.70;99.90
31113;DHT22;17763;48.730;9.136;2023-05-13T13:50:20;13.80;99.90
31113;DHT22;17763;48.730;9.136;2023-05-13T13:52:45;13.70;99.90
31113;DHT22;17763;48.730;9.136;2023-05-13T13:55:11;13.80;99.90
31113;DHT22;17763;48.730;9.136;2023-05-13T13:57:39;13.90;99.90
31113;DHT22;17763;48.730;9.136;2023-05-13T14:00:05;14.00;99.90
31113;DHT22;17763;48.730;9.136;2023-05-13T14:02:30;14.10;99.90
31113;DHT22;17763;48.730;9.136;2023-05-13T14:04:56;14.20;99.90
31113;DHT22;17763;48.730;9.136;2023-05-13T14:07:22;14.20;99.90
31113;DHT22;17763;48.730;9.136;2023-05-13T14:09:47;14.30;99.90
31113;DHT22;17763;48.730;9.136;2023-05-13T14:12:14;14.20;99.90
31113;DHT22;17763;48.730;9.136;2023-05-13T14:14:40;14.20;99.90
31113;DHT22;17763;48.730;9.136;2023-05-13T14:17:08;14.20;99.90
31113;DHT22;17763;48.730;9.136;2023-05-13T14:19:33;14.10;99.90
31113;DHT22;17763;48.730;9.136;2023-05-13T14:21:59;14.20;99.90
31113;DHT22;17763;48.730;9.136;2023-05-13T14:24:25;14.20;99.90
31113;DHT22;17763;48.730;9.136;2023-05-13T14:26:55;14.20;99.90
31113;DHT22;17763;48.730;9.136;2023-05-13T14:29:30;14.40;99.90
31113;DHT22;17763;48.730;9.136;2023-05-13T14:31:55;14.40;99.90
31113;DHT22;17763;48.730;9.136;2023-05-13T14:34:21;14.50;99.90
31113;DHT22;17763;48.730;9.136;2023-05-13T14:36:49;14.60;99.90
31113;DHT22;17763;48.730;9.136;2023-05-13T14:39:17;14.60;99.90
31113;DHT22;17763;48.730;9.136;2023-05-13T14:41:42;14.60;99.90
31113;DHT22;17763;48.730;9.136;2023-05-13T14:44:12;14.50;99.90
31113;DHT22;17763;48.730;9.136;2023-05-13T14:46:37;14.60;99.90
31113;DHT22;17763;48.730;9.136;2023-05-13T14:49:06;14.60;99.90
31113;DHT22;17763;48.730;9.136;2023-05-13T14:51:33;14.70;99.90
31113;DHT22;17763;48.730;9.136;2023-05-13T14:53:58;14.90;99.90
31113;DHT22;17763;48.730;9.136;2023-05-13T14:56:24;15.00;99.90
31113;DHT22;17763;48.730;9.136;2023-05-13T14:58:51;15.20;99.90
31113;DHT22;17763;48.730;9.136;2023-05-13T15:01:17;15.40;99.90
31113;DHT22;17763;48.730;9.136;2023-05-13T15:03:45;15.60;99.90
31113;DHT22;17763;48.730;9.136;2023-05-13T15:06:11;15.80;99.90
31113;DHT22;17763;48.730;9.136;2023-05-13T15:08:36;15.90;99.90
31113;DHT22;17763;48.730;9.136;2023-05-13T15:11:02;16.00;99.90
31113;DHT22;17763;48.730;9.136;2023-05-13T15:13:28;16.20;99.90
31113;DHT22;17763;48.730;9.136;2023-05-13T15:16:00;16.10;99.90
31113;DHT22;17763;48.730;9.136;2023-05-13T15:18:26;16.00;99.90
31113;DHT22;17763;48.730;9.136;2023-05-13T15:20:51;15.70;99.90
31113;DHT22;17763;48.730;9.136;2023-05-13T15:23:21;15.80;99.90
31113;DHT22;17763;48.730;9.136;2023-05-13T15:25:46;15.60;99.90
31113;DHT22;17763;48.730;9.136;2023-05-13T15:28:12;15.60;99.90
31113;DHT22;17763;48.730;9.136;2023-05-13T15:30:38;15.50;99.90
31113;DHT22;17763;48.730;9.136;2023-05-13T15:33:04;15.50;99.90
31113;DHT22;17763;48.730;9.136;2023-05-13T15:35:32;15.50;99.90
31113;DHT22;17763;48.730;9.136;2023-05-13T15:37:58;15.50;99.90
31113;DHT22;17763;48.730;9.136;2023-05-13T15:40:24;15.50;99.90
31113;DHT22;17763;48.730;9.136;2023-05-13T15:42:50;15.60;99.90
31113;DHT22;17763;48.730;9.136;2023-05-13T15:45:15;15.50;99.90
31113;DHT22;17763;48.730;9.136;2023-05-13T15:47:41;15.60;99.90
31113;DHT22;17763;48.730;9.136;2023-05-13T15:50:07;15.60;99.90
31113;DHT22;17763;48.730;9.136;2023-05-13T15:52:33;15.70;99.90
31113;DHT22;17763;48.730;9.136;2023-05-13T15:54:59;15.90;99.90
31113;DHT22;17763;48.730;9.136;2023-05-13T15:57:25;16.00;99.90
31113;DHT22;17763;48.730;9.136;2023-05-13T15:59:53;15.90;99.90